Time;durP1;ratioP1;P1;durP2;ratioP2;P2;SDS_P1;SDS_P2;PMS_P1;PMS_P2;Temp;Humidity;BMP_temperature;BMP_pressure;BME280_temperature;BME280_humidity;BME280_pressure;Samples;Min_cycle;Max_cycle;Signal;HPM_P1;HPM_P2
2023/03/24 00:00:14;;;;;;;3.00;1.67;;;;;;;;;;5054013;28;20033;-69
2023/03/24 00:02:42;;;;;;;3.25;1.77;;;;;;;;;;5054068;28;20039;-69
2023/03/24 00:05:09;;;;;;;2.35;1.60;;;;;;;;;;5053651;28;20025;-69
2023/03/24 00:07:37;;;;;;;2.08;1.42;;;;;;;;;;5053782;28;20025;-69
2023/03/24 00:10:07;;;;;;;2.50;1.42;;;;;;;;;;5053595;28;20427;-69
2023/03/24 00:12:37;;;;;;;1.98;1.48;;;;;;;;;;5053585;28;20025;-69
2023/03/24 00:15:08;;;;;;;2.10;1.38;;;;;;;;;;5053953;28;20021;-69
2023/03/24 00:17:35;;;;;;;2.22;1.23;;;;;;;;;;5053650;28;20025;-69
2023/03/24 00:20:11;;;;;;;2.78;1.83;;;;;;;;;;5053244;28;20021;-69
2023/03/24 00:22:41;;;;;;;3.33;1.35;;;;;;;;;;5053030;28;20182;-69
2023/03/24 00:25:10;;;;;;;2.30;1.43;;;;;;;;;;5053366;28;20020;-69
2023/03/24 00:27:37;;;;;;;1.27;1.10;;;;;;;;;;5053027;28;20404;-68
2023/03/24 00:30:05;;;;;;;2.50;1.20;;;;;;;;;;5053262;28;20031;-68
2023/03/24 00:32:32;;;;;;;2.15;1.10;;;;;;;;;;5053334;28;20033;-68
2023/03/24 00:34:59;;;;;;;3.63;1.38;;;;;;;;;;5053293;28;20033;-68
2023/03/24 00:37:25;;;;;;;1.63;1.00;;;;;;;;;;5053162;28;20021;-69
2023/03/24 00:39:52;;;;;;;2.20;1.10;;;;;;;;;;5053286;28;20021;-69
2023/03/24 00:42:18;;;;;;;1.67;1.00;;;;;;;;;;5052999;28;20044;-69
2023/03/24 00:44:44;;;;;;;1.48;1.08;;;;;;;;;;5053135;28;20477;-69
2023/03/24 00:47:11;;;;;;;2.03;1.33;;;;;;;;;;5053106;28;20033;-68
2023/03/24 00:49:43;;;;;;;1.58;1.10;;;;;;;;;;5053004;28;20032;-69
2023/03/24 00:52:16;;;;;;;1.05;0.90;;;;;;;;;;5052995;28;20074;-69
2023/03/24 00:54:45;;;;;;;4.40;1.45;;;;;;;;;;5052919;28;20496;-68
2023/03/24 00:57:13;;;;;;;1.77;1.10;;;;;;;;;;5052871;28;20025;-68
2023/03/24 00:59:47;;;;;;;1.02;0.82;;;;;;;;;;5052838;28;20025;-69
2023/03/24 01:02:14;;;;;;;2.03;0.90;;;;;;;;;;5052745;28;20063;-69
2023/03/24 01:04:46;;;;;;;2.25;1.10;;;;;;;;;;5052687;28;20021;-69
2023/03/24 01:07:17;;;;;;;2.95;0.95;;;;;;;;;;5052459;28;20511;-69
2023/03/24 01:09:43;;;;;;;;;;;;;;;;;;5052908;28;20400;-69
2023/03/24 01:12:10;;;;;;;0.98;0.80;;;;;;;;;;5052489;28;19911;-69
2023/03/24 01:14:36;;;;;;;0.80;0.80;;;;;;;;;;5052824;28;20025;-69
2023/03/24 01:17:05;;;;;;;2.40;1.00;;;;;;;;;;5052350;28;20043;-69
2023/03/24 01:19:31;;;;;;;0.93;0.93;;;;;;;;;;5052154;28;20131;-69
2023/03/24 01:21:58;;;;;;;1.77;0.90;;;;;;;;;;5051199;28;20039;-69
2023/03/24 01:24:24;;;;;;;1.17;0.75;;;;;;;;;;5052287;28;20013;-68
2023/03/24 01:26:51;;;;;;;0.80;0.77;;;;;;;;;;5052265;28;20481;-69
2023/03/24 01:29:17;;;;;;;1.20;0.60;;;;;;;;;;5051979;28;20033;-69
2023/03/24 01:31:43;;;;;;;1.08;0.70;;;;;;;;;;5052054;28;20028;-68
2023/03/24 01:34:10;;;;;;;0.60;0.60;;;;;;;;;;5051849;28;20031;-69
2023/03/24 01:36:36;;;;;;;1.25;0.70;;;;;;;;;;5052263;28;20028;-68
2023/03/24 01:39:04;;;;;;;1.13;0.65;;;;;;;;;;5051882;28;20032;-69
2023/03/24 01:41:33;;;;;;;0.75;0.75;;;;;;;;;;5051918;28;20029;-69
2023/03/24 01:43:59;;;;;;;1.63;0.68;;;;;;;;;;5052041;28;20404;-69
2023/03/24 01:46:28;;;;;;;0.47;0.47;;;;;;;;;;5051934;28;20500;-69
2023/03/24 01:48:56;;;;;;;0.40;0.40;;;;;;;;;;5052058;28;20025;-69
2023/03/24 01:51:33;;;;;;;2.08;0.50;;;;;;;;;;5052060;28;20017;-68
2023/03/24 01:54:00;;;;;;;0.57;0.50;;;;;;;;;;5050796;28;20033;-69
2023/03/24 01:56:27;;;;;;;0.43;0.43;;;;;;;;;;5051854;28;20493;-69
2023/03/24 01:58:58;;;;;;;1.10;0.50;;;;;;;;;;5051966;28;20021;-68
2023/03/24 02:01:28;;;;;;;0.40;0.40;;;;;;;;;;5051842;28;20025;-68
2023/03/24 02:03:55;;;;;;;0.50;0.50;;;;;;;;;;5051683;28;20017;-69
2023/03/24 02:06:24;;;;;;;1.17;0.50;;;;;;;;;;5051838;28;20025;-69
2023/03/24 02:08:52;;;;;;;0.73;0.60;;;;;;;;;;5051653;28;20025;-69
2023/03/24 02:11:19;;;;;;;0.90;0.47;;;;;;;;;;5052113;28;20043;-68
2023/03/24 02:13:46;;;;;;;0.50;0.50;;;;;;;;;;5052067;28;20021;-68
2023/03/24 02:16:12;;;;;;;0.50;0.50;;;;;;;;;;5051996;28;20017;-69
2023/03/24 02:18:43;;;;;;;1.13;0.60;;;;;;;;;;5051574;28;20485;-69
2023/03/24 02:21:09;;;;;;;;;;;;;;;;;;5051975;28;20440;-69
2023/03/24 02:23:45;;;;;;;0.70;0.70;;;;;;;;;;5051720;28;20388;-69
2023/03/24 02:26:20;;;;;;;0.88;0.75;;;;;;;;;;5051717;28;20031;-68
2023/03/24 02:28:57;;;;;;;0.85;0.60;;;;;;;;;;5051463;28;20467;-69
2023/03/24 02:31:33;;;;;;;0.77;0.77;;;;;;;;;;5051764;28;20040;-69
2023/03/24 02:34:21;;;;;;;1.13;1.02;;;;;;;;;;5051877;28;20021;-69
2023/03/24 02:36:48;;;;;;;1.00;0.80;;;;;;;;;;5051674;28;20017;-69
2023/03/24 02:39:15;;;;;;;0.95;0.88;;;;;;;;;;5051785;28;20021;-69
2023/03/24 02:41:53;;;;;;;1.58;0.90;;;;;;;;;;5051572;28;20039;-68
2023/03/24 02:44:23;;;;;;;0.90;0.73;;;;;;;;;;5053709;28;20039;-69
2023/03/24 02:47:09;;;;;;;2.22;0.95;;;;;;;;;;5055102;28;20021;-69
2023/03/24 02:49:39;;;;;;;2.72;0.75;;;;;;;;;;5054925;28;20029;-69
2023/03/24 02:52:06;;;;;;;1.47;1.17;;;;;;;;;;5055331;28;20039;-69
2023/03/24 02:54:47;;;;;;;1.35;0.88;;;;;;;;;;5053655;28;20033;-69
2023/03/24 02:57:20;;;;;;;4.18;1.00;;;;;;;;;;5054944;28;20031;-69
2023/03/24 02:59:53;;;;;;;1.25;1.00;;;;;;;;;;5054906;28;20021;-69
2023/03/24 03:02:23;;;;;;;2.20;1.40;;;;;;;;;;5054507;28;20033;-69
2023/03/24 03:04:53;;;;;;;1.75;1.00;;;;;;;;;;5054913;28;20225;-69
2023/03/24 03:07:22;;;;;;;2.15;1.02;;;;;;;;;;5055201;28;20033;-69
2023/03/24 03:09:51;;;;;;;3.13;1.33;;;;;;;;;;5054589;28;20029;-69
2023/03/24 03:12:19;;;;;;;3.30;1.50;;;;;;;;;;5054935;28;20021;-69
2023/03/24 03:14:48;;;;;;;2.83;1.80;;;;;;;;;;5054547;28;20036;-69
2023/03/24 03:17:17;;;;;;;4.72;1.58;;;;;;;;;;5054821;28;20039;-69
2023/03/24 03:19:49;;;;;;;3.60;1.75;;;;;;;;;;5054584;28;20025;-69
2023/03/24 03:22:22;;;;;;;1.20;1.10;;;;;;;;;;5054455;28;20039;-69
2023/03/24 03:24:51;;;;;;;3.38;1.70;;;;;;;;;;5054853;28;20086;-69
2023/03/24 03:27:30;;;;;;;2.13;1.52;;;;;;;;;;5054256;28;20029;-69
2023/03/24 03:30:25;;;;;;;1.80;1.60;;;;;;;;;;5054287;28;20029;-68
2023/03/24 03:33:01;;;;;;;3.20;2.03;;;;;;;;;;5032154;28;20033;-69
2023/03/24 03:35:35;;;;;;;5.25;2.33;;;;;;;;;;5032260;28;20030;-68
2023/03/24 03:38:20;;;;;;;3.25;1.70;;;;;;;;;;5032231;28;20047;-69
2023/03/24 03:40:51;;;;;;;2.00;1.60;;;;;;;;;;5032246;28;20029;-69
2023/03/24 03:43:17;;;;;;;3.00;1.60;;;;;;;;;;5031999;28;20072;-69
2023/03/24 03:45:44;;;;;;;1.77;1.58;;;;;;;;;;5031715;28;20040;-69
2023/03/24 03:48:10;;;;;;;3.10;1.70;;;;;;;;;;5032002;28;20034;-69
2023/03/24 03:50:37;;;;;;;3.83;2.17;;;;;;;;;;5031876;28;20048;-69
2023/03/24 03:53:05;;;;;;;2.50;1.90;;;;;;;;;;5032101;28;20035;-69
2023/03/24 03:55:32;;;;;;;1.75;1.30;;;;;;;;;;5031201;28;20038;-69
2023/03/24 03:57:59;;;;;;;2.75;1.63;;;;;;;;;;5031831;28;20043;-69
2023/03/24 04:00:25;;;;;;;2.88;1.90;;;;;;;;;;5031569;28;20467;-69
2023/03/24 04:03:16;;;;;;;3.33;1.80;;;;;;;;;;5031614;28;20420;-69
2023/03/24 04:05:47;;;;;;;4.03;2.13;;;;;;;;;;4992247;28;20158;-69
2023/03/24 04:08:22;;;;;;;3.28;1.90;;;;;;;;;;4990919;28;20046;-69
2023/03/24 04:11:10;;;;;;;3.65;2.28;;;;;;;;;;4972865;28;20039;-69
2023/03/24 04:13:55;;;;;;;2.83;2.05;;;;;;;;;;4972805;28;20033;-68
2023/03/24 04:16:27;;;;;;;7.13;3.15;;;;;;;;;;4972626;28;20061;-69
2023/03/24 04:19:11;;;;;;;4.63;2.17;;;;;;;;;;4972441;28;20037;-69
2023/03/24 04:21:47;;;;;;;5.43;1.90;;;;;;;;;;4972526;28;20426;-69
2023/03/24 04:24:33;;;;;;;6.25;2.53;;;;;;;;;;4972494;28;20045;-69
2023/03/24 04:27:08;;;;;;;3.90;2.30;;;;;;;;;;4972531;28;20047;-69
2023/03/24 04:29:45;;;;;;;3.95;2.10;;;;;;;;;;4955932;28;20055;-69
2023/03/24 04:32:24;;;;;;;5.03;2.85;;;;;;;;;;4972439;28;20037;-69
2023/03/24 04:35:00;;;;;;;4.45;1.90;;;;;;;;;;4972436;28;20041;-69
2023/03/24 04:37:31;;;;;;;3.85;2.28;;;;;;;;;;4972497;28;20059;-69
2023/03/24 04:39:59;;;;;;;4.38;2.35;;;;;;;;;;4972639;28;20069;-69
2023/03/24 04:42:29;;;;;;;4.35;2.40;;;;;;;;;;4996300;28;20547;-69
2023/03/24 04:44:56;;;;;;;3.85;2.30;;;;;;;;;;5033596;28;20017;-69
2023/03/24 04:47:25;;;;;;;2.80;2.05;;;;;;;;;;5033284;28;20025;-69
2023/03/24 04:49:59;;;;;;;2.63;2.10;;;;;;;;;;5032963;28;20021;-69
2023/03/24 04:52:26;;;;;;;3.33;2.20;;;;;;;;;;5032996;28;20033;-69
2023/03/24 04:54:53;;;;;;;5.35;2.70;;;;;;;;;;5032748;28;20027;-69
2023/03/24 04:57:19;;;;;;;4.80;2.60;;;;;;;;;;5032675;28;20436;-69
2023/03/24 04:59:46;;;;;;;4.35;2.47;;;;;;;;;;5044400;28;20039;-68
2023/03/24 05:02:12;;;;;;;4.88;3.17;;;;;;;;;;5052658;28;20051;-68
2023/03/24 05:04:38;;;;;;;5.75;2.70;;;;;;;;;;5052649;28;20025;-69
2023/03/24 05:07:05;;;;;;;4.05;2.50;;;;;;;;;;5051927;28;20033;-69
2023/03/24 05:09:31;;;;;;;5.35;2.17;;;;;;;;;;5052764;28;20017;-69
2023/03/24 05:11:58;;;;;;;7.85;2.17;;;;;;;;;;5052327;28;20025;-69
2023/03/24 05:14:24;;;;;;;4.22;2.47;;;;;;;;;;5052686;28;20029;-68
2023/03/24 05:16:50;;;;;;;2.95;2.00;;;;;;;;;;5052622;28;20036;-68
2023/03/24 05:19:17;;;;;;;3.28;2.33;;;;;;;;;;5052381;28;20032;-69
2023/03/24 05:21:43;;;;;;;5.38;2.58;;;;;;;;;;5052185;28;20028;-69
2023/03/24 05:24:11;;;;;;;4.47;2.42;;;;;;;;;;5052502;28;20028;-68
2023/03/24 05:26:37;;;;;;;5.90;2.55;;;;;;;;;;5052206;28;20017;-69
2023/03/24 05:29:03;;;;;;;3.75;2.55;;;;;;;;;;5084194;28;20455;-69
2023/03/24 05:31:30;;;;;;;5.53;2.50;;;;;;;;;;5052238;28;20033;-69
2023/03/24 05:33:56;;;;;;;4.07;2.25;;;;;;;;;;5052150;28;20021;-69
2023/03/24 05:36:22;;;;;;;4.28;2.25;;;;;;;;;;5052370;28;20032;-69
2023/03/24 05:38:49;;;;;;;4.47;2.47;;;;;;;;;;5052302;28;20382;-68
2023/03/24 05:41:15;;;;;;;4.32;2.60;;;;;;;;;;5051956;28;20021;-69
2023/03/24 05:43:41;;;;;;;3.35;2.47;;;;;;;;;;5052141;28;20031;-69
2023/03/24 05:46:08;;;;;;;5.55;2.53;;;;;;;;;;5052073;28;20028;-69
2023/03/24 05:48:34;;;;;;;5.63;2.88;;;;;;;;;;5051956;28;20464;-69
2023/03/24 05:51:00;;;;;;;4.47;2.60;;;;;;;;;;5052211;28;20017;-69
2023/03/24 05:53:27;;;;;;;5.32;2.50;;;;;;;;;;5052025;28;20028;-69
2023/03/24 05:55:53;;;;;;;5.15;2.80;;;;;;;;;;5051803;28;20037;-69
2023/03/24 05:58:20;;;;;;;2.78;2.20;;;;;;;;;;5051877;28;20023;-69
2023/03/24 06:00:46;;;;;;;5.53;2.20;;;;;;;;;;5051923;28;20535;-69
2023/03/24 06:03:15;;;;;;;3.80;2.17;;;;;;;;;;5051749;28;20033;-69
2023/03/24 06:05:44;;;;;;;5.68;2.20;;;;;;;;;;5052144;28;20021;-69
2023/03/24 06:08:11;;;;;;;6.97;2.40;;;;;;;;;;5051824;28;20392;-69
2023/03/24 06:10:37;;;;;;;2.85;2.28;;;;;;;;;;5051908;28;20039;-69
2023/03/24 06:13:03;;;;;;;4.53;2.42;;;;;;;;;;5051752;28;20470;-69
2023/03/24 06:15:30;;;;;;;6.85;2.40;;;;;;;;;;5050563;28;20040;-69
2023/03/24 06:17:56;;;;;;;3.88;2.63;;;;;;;;;;5051791;28;20017;-69
2023/03/24 06:20:23;;;;;;;3.85;2.70;;;;;;;;;;5055809;28;20025;-69
2023/03/24 06:22:49;;;;;;;5.20;2.67;;;;;;;;;;5055709;28;20039;-69
2023/03/24 06:25:16;;;;;;;6.53;2.78;;;;;;;;;;5055361;28;20021;-69
2023/03/24 06:27:47;;;;;;;6.25;2.95;;;;;;;;;;5055404;28;20051;-69
2023/03/24 06:30:15;;;;;;;3.15;2.20;;;;;;;;;;5055482;28;20021;-69
2023/03/24 06:32:45;;;;;;;3.20;2.20;;;;;;;;;;5055473;28;20032;-69
2023/03/24 06:35:13;;;;;;;9.50;2.15;;;;;;;;;;5055694;28;20037;-69
2023/03/24 06:37:39;;;;;;;3.58;2.00;;;;;;;;;;5055364;28;20036;-69
2023/03/24 06:40:09;;;;;;;3.22;2.00;;;;;;;;;;5055192;28;20018;-69
2023/03/24 06:42:35;;;;;;;3.67;2.28;;;;;;;;;;5055279;28;20033;-69
2023/03/24 06:45:01;;;;;;;2.90;1.73;;;;;;;;;;5055341;28;20423;-69
2023/03/24 06:47:28;;;;;;;2.63;2.10;;;;;;;;;;5055082;28;20033;-69
2023/03/24 06:49:54;;;;;;;3.83;1.85;;;;;;;;;;5055068;28;20450;-69
2023/03/24 06:52:21;;;;;;;1.60;1.50;;;;;;;;;;5054838;28;20483;-69
2023/03/24 06:54:47;;;;;;;3.92;1.85;;;;;;;;;;5055370;28;20021;-69
2023/03/24 06:57:14;;;;;;;2.88;1.65;;;;;;;;;;5054133;28;20029;-69
2023/03/24 06:59:41;;;;;;;3.78;1.65;;;;;;;;;;5051506;28;20516;-69
2023/03/24 07:02:11;;;;;;;1.75;1.65;;;;;;;;;;5054603;28;20029;-69
2023/03/24 07:04:37;;;;;;;3.17;1.83;;;;;;;;;;5054409;28;20033;-69
2023/03/24 07:07:04;;;;;;;1.95;1.58;;;;;;;;;;5054302;28;20037;-69
2023/03/24 07:09:31;;;;;;;2.88;1.70;;;;;;;;;;5051308;28;20039;-69
2023/03/24 07:11:57;;;;;;;3.13;1.60;;;;;;;;;;5053335;28;20021;-69
2023/03/24 07:14:25;;;;;;;17.75;2.30;;;;;;;;;;5052714;28;20427;-69
2023/03/24 07:16:52;;;;;;;6.05;1.85;;;;;;;;;;5053732;28;20019;-69
2023/03/24 07:19:19;;;;;;;2.42;1.92;;;;;;;;;;5053861;28;20033;-69
2023/03/24 07:21:48;;;;;;;4.43;1.85;;;;;;;;;;5053860;28;20033;-69
2023/03/24 07:24:18;;;;;;;4.00;2.05;;;;;;;;;;5053825;28;20396;-69
2023/03/24 07:26:44;;;;;;;2.50;1.60;;;;;;;;;;5054181;28;20025;-69
2023/03/24 07:29:11;;;;;;;6.40;1.85;;;;;;;;;;5052555;28;20044;-69
2023/03/24 07:31:38;;;;;;;4.03;1.85;;;;;;;;;;5052688;28;20085;-69
2023/03/24 07:34:05;;;;;;;2.45;1.80;;;;;;;;;;5050993;28;20382;-69
2023/03/24 07:36:31;;;;;;;3.28;1.83;;;;;;;;;;5052253;28;20503;-69
2023/03/24 07:38:57;;;;;;;4.18;1.80;;;;;;;;;;5053524;28;20033;-69
2023/03/24 07:41:25;;;;;;;2.72;1.75;;;;;;;;;;5052446;28;20017;-69
2023/03/24 07:43:52;;;;;;;4.75;1.92;;;;;;;;;;5054018;28;20108;-69
2023/03/24 07:46:18;;;;;;;2.17;1.85;;;;;;;;;;5053372;28;20029;-69
2023/03/24 07:48:45;;;;;;;3.25;2.13;;;;;;;;;;5057761;28;20039;-69
2023/03/24 07:51:12;;;;;;;1.98;1.60;;;;;;;;;;5052718;28;20032;-69
2023/03/24 07:53:38;;;;;;;2.25;1.60;;;;;;;;;;5053270;28;20031;-69
2023/03/24 07:56:04;;;;;;;3.72;1.70;;;;;;;;;;5053339;28;20028;-68
2023/03/24 07:58:31;;;;;;;1.70;1.60;;;;;;;;;;5053298;28;20041;-69
2023/03/24 08:00:57;;;;;;;5.30;1.92;;;;;;;;;;5052946;28;20485;-69
2023/03/24 08:03:26;;;;;;;3.13;1.50;;;;;;;;;;5053052;28;20086;-69
2023/03/24 08:05:53;;;;;;;2.20;1.70;;;;;;;;;;5052655;28;20021;-69
2023/03/24 08:08:20;;;;;;;3.42;1.85;;;;;;;;;;5063815;28;20435;-70
2023/03/24 08:10:49;;;;;;;2.92;1.80;;;;;;;;;;5073215;28;20029;-68
2023/03/24 08:13:15;;;;;;;2.45;1.65;;;;;;;;;;5066831;28;20029;-69
2023/03/24 08:15:42;;;;;;;2.58;1.90;;;;;;;;;;5053083;28;20025;-69
2023/03/24 08:18:08;;;;;;;2.63;1.58;;;;;;;;;;5053548;28;20017;-69
2023/03/24 08:20:35;;;;;;;3.20;1.80;;;;;;;;;;5052832;28;20025;-68
2023/03/24 08:23:03;;;;;;;2.30;1.60;;;;;;;;;;5054431;28;20079;-69
2023/03/24 08:25:30;;;;;;;4.93;2.03;;;;;;;;;;5033048;28;20036;-69
2023/03/24 08:27:56;;;;;;;3.55;1.70;;;;;;;;;;5039664;28;20496;-69
2023/03/24 08:30:24;;;;;;;2.40;1.70;;;;;;;;;;5052653;28;20022;-69
2023/03/24 08:32:52;;;;;;;3.17;1.55;;;;;;;;;;5052788;28;20029;-69
2023/03/24 08:35:20;;;;;;;2.05;1.52;;;;;;;;;;5052537;28;20067;-69
2023/03/24 08:37:46;;;;;;;3.67;1.80;;;;;;;;;;5051899;28;20028;-69
2023/03/24 08:40:17;;;;;;;1.40;1.25;;;;;;;;;;5052904;28;20025;-69
2023/03/24 08:42:44;;;;;;;3.92;1.45;;;;;;;;;;5052783;28;20029;-69
2023/03/24 08:45:11;;;;;;;1.55;1.23;;;;;;;;;;5052319;28;20487;-69
2023/03/24 08:47:38;;;;;;;2.92;1.63;;;;;;;;;;5052236;28;20055;-69
2023/03/24 08:50:06;;;;;;;4.13;1.95;;;;;;;;;;5052199;28;20014;-70
2023/03/24 08:52:33;;;;;;;3.05;1.48;;;;;;;;;;5047810;28;20067;-69
2023/03/24 08:54:59;;;;;;;1.13;0.98;;;;;;;;;;5052279;28;20020;-69
2023/03/24 08:57:26;;;;;;;2.13;1.10;;;;;;;;;;5052475;28;20028;-69
2023/03/24 08:59:52;;;;;;;1.10;1.00;;;;;;;;;;5052100;28;20074;-69
2023/03/24 09:02:19;;;;;;;1.20;1.10;;;;;;;;;;5052345;28;20040;-69
2023/03/24 09:04:45;;;;;;;4.05;1.50;;;;;;;;;;5051110;28;20033;-69
2023/03/24 09:07:11;;;;;;;2.92;1.02;;;;;;;;;;5052117;28;20043;-69
2023/03/24 09:09:38;;;;;;;1.75;1.02;;;;;;;;;;5052255;28;20106;-69
2023/03/24 09:12:05;;;;;;;1.70;1.60;;;;;;;;;;5051953;28;20032;-69
2023/03/24 09:14:31;;;;;;;1.27;1.17;;;;;;;;;;5052095;28;20017;-69
2023/03/24 09:16:58;;;;;;;1.33;0.82;;;;;;;;;;5052018;28;20359;-70
2023/03/24 09:19:24;;;;;;;0.90;0.90;;;;;;;;;;5052373;28;20025;-70
2023/03/24 09:21:51;;;;;;;1.08;0.85;;;;;;;;;;5050503;28;20044;-71
2023/03/24 09:24:17;;;;;;;0.82;0.80;;;;;;;;;;5051916;28;20040;-70
2023/03/24 09:26:43;;;;;;;1.80;1.17;;;;;;;;;;5051862;28;20487;-70
2023/03/24 09:29:10;;;;;;;0.60;0.60;;;;;;;;;;5050941;28;20044;-68
2023/03/24 09:31:37;;;;;;;0.85;0.85;;;;;;;;;;5050645;28;20032;-70
2023/03/24 09:34:03;;;;;;;1.30;0.85;;;;;;;;;;5068535;28;20031;-69
2023/03/24 09:36:29;;;;;;;1.98;1.00;;;;;;;;;;5051240;28;20037;-69
2023/03/24 09:38:56;;;;;;;1.52;0.85;;;;;;;;;;5051295;28;20014;-69
2023/03/24 09:41:27;;;;;;;0.82;0.82;;;;;;;;;;5051618;28;20024;-69
2023/03/24 09:44:05;;;;;;;1.67;1.10;;;;;;;;;;5051410;28;20047;-69
2023/03/24 09:46:36;;;;;;;1.58;1.10;;;;;;;;;;5050792;28;20481;-71
2023/03/24 09:49:04;;;;;;;4.95;0.88;;;;;;;;;;5031559;28;20034;-69
2023/03/24 09:51:30;;;;;;;2.78;0.90;;;;;;;;;;5034902;28;20017;-70
2023/03/24 09:54:08;;;;;;;2.40;1.00;;;;;;;;;;5050348;28;20021;-70
2023/03/24 09:56:37;;;;;;;1.00;1.00;;;;;;;;;;5051145;28;20036;-70
2023/03/24 09:59:23;;;;;;;1.00;0.90;;;;;;;;;;5051432;28;20028;-70
2023/03/24 10:01:51;;;;;;;1.52;0.75;;;;;;;;;;5046281;28;20055;-70
2023/03/24 10:04:21;;;;;;;1.00;0.80;;;;;;;;;;5050974;28;20036;-70
2023/03/24 10:06:51;;;;;;;1.10;0.93;;;;;;;;;;5051377;28;20051;-70
2023/03/24 10:09:21;;;;;;;2.97;0.90;;;;;;;;;;5050714;28;20489;-70
2023/03/24 10:11:48;;;;;;;2.30;0.93;;;;;;;;;;5050902;28;20518;-70
2023/03/24 10:14:14;;;;;;;1.13;0.90;;;;;;;;;;5049437;28;20037;-70
2023/03/24 10:16:49;;;;;;;1.00;0.90;;;;;;;;;;5051357;28;20376;-70
2023/03/24 10:19:23;;;;;;;1.05;0.95;;;;;;;;;;5051323;28;20350;-70
2023/03/24 10:22:02;;;;;;;1.05;0.85;;;;;;;;;;5050886;28;20357;-70
2023/03/24 10:24:47;;;;;;;3.30;1.15;;;;;;;;;;5050852;28;20029;-70
2023/03/24 10:27:16;;;;;;;1.02;0.93;;;;;;;;;;5051143;28;20021;-69
2023/03/24 10:29:45;;;;;;;2.05;1.00;;;;;;;;;;5048693;28;20036;-70
2023/03/24 10:32:23;;;;;;;1.17;1.00;;;;;;;;;;5050519;28;20033;-69
2023/03/24 10:35:07;;;;;;;1.48;0.80;;;;;;;;;;5049600;28;20505;-70
2023/03/24 10:37:34;;;;;;;1.17;1.00;;;;;;;;;;5050578;28;20416;-70
2023/03/24 10:40:00;;;;;;;1.63;0.80;;;;;;;;;;5050879;28;20035;-70
2023/03/24 10:42:30;;;;;;;2.45;0.70;;;;;;;;;;5050368;28;20087;-69
2023/03/24 10:44:56;;;;;;;1.15;0.80;;;;;;;;;;5049527;28;20029;-70
2023/03/24 10:47:25;;;;;;;2.40;1.00;;;;;;;;;;5048691;28;20043;-69
2023/03/24 10:49:52;;;;;;;1.15;0.80;;;;;;;;;;5050122;28;20485;-70
2023/03/24 10:52:19;;;;;;;0.98;0.80;;;;;;;;;;5050188;28;20029;-70
2023/03/24 10:54:56;;;;;;;1.23;0.90;;;;;;;;;;5050654;28;20473;-69
2023/03/24 10:57:23;;;;;;;0.90;0.90;;;;;;;;;;5050792;28;20029;-70
2023/03/24 10:59:49;;;;;;;1.13;0.88;;;;;;;;;;5050646;28;20025;-70
2023/03/24 11:02:27;;;;;;;1.38;0.88;;;;;;;;;;5050118;28;20074;-70
2023/03/24 11:04:58;;;;;;;3.72;0.90;;;;;;;;;;5050454;28;20039;-70
2023/03/24 11:07:35;;;;;;;1.20;0.93;;;;;;;;;;5054144;28;20514;-70
2023/03/24 11:10:07;;;;;;;2.75;0.90;;;;;;;;;;5054286;28;20025;-69
2023/03/24 11:12:35;;;;;;;0.82;0.80;;;;;;;;;;5053833;28;20025;-69
2023/03/24 11:15:15;;;;;;;1.55;0.98;;;;;;;;;;5053526;28;20032;-70
2023/03/24 11:17:41;;;;;;;1.40;1.20;;;;;;;;;;5052483;28;20519;-70
2023/03/24 11:20:18;;;;;;;1.08;0.80;;;;;;;;;;5054086;28;20021;-69
2023/03/24 11:23:05;;;;;;;1.92;0.93;;;;;;;;;;5052843;28;20039;-70
2023/03/24 11:25:34;;;;;;;0.85;0.80;;;;;;;;;;5054054;28;20021;-69
2023/03/24 11:28:02;;;;;;;1.02;0.90;;;;;;;;;;5053539;28;20043;-69
2023/03/24 11:30:34;;;;;;;1.42;1.10;;;;;;;;;;5053627;28;20048;-69
2023/03/24 11:33:02;;;;;;;1.00;0.90;;;;;;;;;;5053958;28;20017;-70
2023/03/24 11:35:30;;;;;;;3.25;1.10;;;;;;;;;;5053655;28;20505;-69
2023/03/24 11:37:56;;;;;;;1.17;0.93;;;;;;;;;;5053781;28;20021;-69
2023/03/24 11:40:23;;;;;;;1.52;1.20;;;;;;;;;;5053509;28;20025;-69
2023/03/24 11:42:54;;;;;;;1.50;1.00;;;;;;;;;;5053131;28;20029;-69
2023/03/24 11:45:21;;;;;;;1.63;0.98;;;;;;;;;;5052349;28;20021;-69
2023/03/24 11:47:47;;;;;;;2.00;1.10;;;;;;;;;;5053523;28;20492;-69
2023/03/24 11:50:19;;;;;;;1.48;1.00;;;;;;;;;;5053453;28;20031;-69
2023/03/24 11:53:04;;;;;;;3.17;0.90;;;;;;;;;;5052327;28;20021;-70
2023/03/24 11:55:36;;;;;;;1.08;1.05;;;;;;;;;;5051596;28;20055;-69
2023/03/24 11:58:24;;;;;;;1.65;0.90;;;;;;;;;;5053007;28;20013;-69
2023/03/24 12:01:13;;;;;;;1.80;1.08;;;;;;;;;;5047457;28;20021;-69
2023/03/24 12:03:46;;;;;;;2.58;1.02;;;;;;;;;;5053244;28;20506;-69
2023/03/24 12:06:20;;;;;;;3.22;1.30;;;;;;;;;;5052731;28;20013;-69
2023/03/24 12:08:46;;;;;;;1.33;1.02;;;;;;;;;;5053482;28;20033;-69
2023/03/24 12:11:20;;;;;;;5.68;1.20;;;;;;;;;;5052970;28;20055;-70
2023/03/24 12:13:48;;;;;;;1.73;1.25;;;;;;;;;;5053041;28;20029;-69
2023/03/24 12:16:33;;;;;;;5.07;1.13;;;;;;;;;;5052393;28;20489;-70
2023/03/24 12:19:08;;;;;;;3.20;0.90;;;;;;;;;;5052853;28;20473;-69
2023/03/24 12:22:07;;;;;;;1.70;0.98;;;;;;;;;;5052925;28;20021;-70
2023/03/24 12:24:33;;;;;;;4.45;1.63;;;;;;;;;;5010670;28;20609;-69
2023/03/24 12:27:00;;;;;;;1.90;1.40;;;;;;;;;;5010865;28;21250;-69
2023/03/24 12:29:37;;;;;;;3.22;1.33;;;;;;;;;;5010492;28;20041;-69
2023/03/24 12:32:18;;;;;;;1.77;0.85;;;;;;;;;;5010794;28;20032;-69
2023/03/24 12:34:44;;;;;;;0.77;0.77;;;;;;;;;;5011159;28;20026;-69
2023/03/24 12:37:26;;;;;;;3.03;0.90;;;;;;;;;;5010557;28;20025;-69
2023/03/24 12:39:55;;;;;;;1.05;0.73;;;;;;;;;;5010816;28;20052;-69
2023/03/24 12:42:23;;;;;;;2.40;0.90;;;;;;;;;;5009862;28;20026;-69
2023/03/24 12:44:55;;;;;;;2.10;1.00;;;;;;;;;;5010828;28;20125;-69
2023/03/24 12:47:40;;;;;;;2.17;1.20;;;;;;;;;;5010525;28;20045;-69
2023/03/24 12:50:12;;;;;;;2.38;1.50;;;;;;;;;;5010580;28;20030;-69
2023/03/24 12:53:03;;;;;;;1.65;1.15;;;;;;;;;;5010292;28;20029;-69
2023/03/24 12:55:32;;;;;;;6.50;1.52;;;;;;;;;;5009486;28;20111;-69
2023/03/24 12:58:02;;;;;;;2.78;2.22;;;;;;;;;;5010528;28;20129;-69
2023/03/24 13:00:30;;;;;;;1.92;1.67;;;;;;;;;;5025679;28;20029;-69
2023/03/24 13:03:09;;;;;;;2.05;1.30;;;;;;;;;;5051636;28;20029;-69
2023/03/24 13:05:39;;;;;;;1.17;1.08;;;;;;;;;;5052073;28;20031;-69
2023/03/24 13:08:12;;;;;;;2.58;1.23;;;;;;;;;;5052631;28;20029;-70
2023/03/24 13:10:41;;;;;;;1.92;1.40;;;;;;;;;;5052142;28;20451;-70
2023/03/24 13:13:20;;;;;;;2.55;1.17;;;;;;;;;;5050927;28;20043;-69
2023/03/24 13:15:51;;;;;;;4.55;0.90;;;;;;;;;;5052138;28;20023;-69
2023/03/24 13:18:21;;;;;;;1.55;1.10;;;;;;;;;;5032356;28;20037;-70
2023/03/24 13:20:50;;;;;;;4.22;1.20;;;;;;;;;;5051763;28;20043;-69
2023/03/24 13:23:17;;;;;;;2.40;1.17;;;;;;;;;;5052064;28;20086;-69
2023/03/24 13:25:53;;;;;;;1.88;1.20;;;;;;;;;;5051902;28;20025;-70
2023/03/24 13:28:27;;;;;;;1.55;0.80;;;;;;;;;;5051223;28;20075;-70
2023/03/24 13:30:54;;;;;;;4.95;1.35;;;;;;;;;;5050945;28;20066;-69
2023/03/24 13:33:25;;;;;;;1.63;1.00;;;;;;;;;;5051579;28;20027;-68
2023/03/24 13:35:51;;;;;;;;;;;;;;;;;;5052121;28;20025;-68
2023/03/24 13:38:26;;;;;;;2.08;1.30;;;;;;;;;;5050879;28;20293;-69
2023/03/24 13:40:56;;;;;;;1.92;1.48;;;;;;;;;;5031676;28;20379;-68
2023/03/24 13:43:24;;;;;;;2.35;1.15;;;;;;;;;;5031880;28;20470;-68
2023/03/24 13:45:57;;;;;;;2.25;1.27;;;;;;;;;;5049783;28;20033;-69
2023/03/24 13:48:31;;;;;;;1.83;1.30;;;;;;;;;;5051625;28;20062;-69
2023/03/24 13:50:59;;;;;;;2.22;1.25;;;;;;;;;;5055021;28;20039;-67
2023/03/24 13:53:44;;;;;;;1.63;1.40;;;;;;;;;;5051806;28;20031;-69
2023/03/24 13:56:11;;;;;;;1.60;1.25;;;;;;;;;;5051499;28;20503;-69
2023/03/24 13:58:47;;;;;;;5.45;1.30;;;;;;;;;;5051641;28;20074;-69
2023/03/24 14:01:19;;;;;;;1.90;1.45;;;;;;;;;;5052880;28;20114;-68
2023/03/24 14:03:46;;;;;;;2.28;1.35;;;;;;;;;;5051446;28;20035;-69
2023/03/24 14:06:16;;;;;;;3.15;1.50;;;;;;;;;;5051716;28;20029;-68
2023/03/24 14:08:52;;;;;;;1.95;1.45;;;;;;;;;;5051640;28;20106;-69
2023/03/24 14:11:33;;;;;;;2.65;1.38;;;;;;;;;;5052985;28;20020;-68
2023/03/24 14:14:14;;;;;;;2.20;1.50;;;;;;;;;;5049233;28;20020;-68
2023/03/24 14:16:50;;;;;;;2.38;1.17;;;;;;;;;;5034020;28;20025;-68
2023/03/24 14:19:19;;;;;;;4.57;1.20;;;;;;;;;;5051283;28;20021;-69
2023/03/24 14:21:51;;;;;;;2.90;1.50;;;;;;;;;;5051180;28;20037;-70
2023/03/24 14:24:23;;;;;;;7.63;1.90;;;;;;;;;;5052406;28;20017;-69
2023/03/24 14:26:50;;;;;;;3.42;1.92;;;;;;;;;;5051519;28;20058;-69
2023/03/24 14:29:36;;;;;;;2.90;2.00;;;;;;;;;;5049887;28;20049;-69
2023/03/24 14:32:03;;;;;;;4.53;2.15;;;;;;;;;;5051442;28;20033;-68
2023/03/24 14:34:30;;;;;;;3.88;1.63;;;;;;;;;;5051194;28;20432;-68
2023/03/24 14:37:02;;;;;;;3.78;1.60;;;;;;;;;;5050525;28;20086;-68
2023/03/24 14:39:39;;;;;;;1.65;1.20;;;;;;;;;;5052489;28;20033;-70
2023/03/24 14:42:24;;;;;;;1.63;1.30;;;;;;;;;;5055207;28;20492;-68
2023/03/24 14:44:51;;;;;;;2.95;1.52;;;;;;;;;;5055081;28;20120;-69
2023/03/24 14:47:19;;;;;;;4.43;1.50;;;;;;;;;;5054971;28;20075;-69
2023/03/24 14:49:46;;;;;;;1.45;1.33;;;;;;;;;;5054837;28;20379;-69
2023/03/24 14:52:21;;;;;;;1.80;1.02;;;;;;;;;;5054720;28;20032;-69
2023/03/24 14:54:53;;;;;;;0.65;0.65;;;;;;;;;;5054619;28;20559;-69
2023/03/24 14:57:27;;;;;;;0.98;0.85;;;;;;;;;;5055042;28;20027;-69
2023/03/24 15:00:13;;;;;;;0.50;0.50;;;;;;;;;;5053859;28;20396;-69